»·PEaware :: WAT540 KFUL-KCMA

WAT540 :: KFUL-KCMA

FLIGHT INFORMATION

Flight Status: Arrived
Operator:
Walker Air Transport
More flights by this operator :: More flights under this callsign
Pilot: Michael R. (33632)
Aircraft: GRUMMAN AERO AA5 CHEETAH TIGER
(AA5)
More flights by this aircraft type
Origin: KFUL Fullerton Mun
United States
Destination: KCMA Camarillo
United States
More flights between these airports :: More routes between these airports
Route: LADDD BROUK FANGY GADDO BEVEY NUGEE HUPLA
File this flight plan on PilotEdge
Remarks:
Altitude:
(Current/Filed)
4,500ft
Speed:
(Current/Filed)
130kts
Departed: 12-Feb-21 01:49 AM
Arrived: 12-Feb-21 02:20 AM
Distance/Time
Traveled:
59nm/0:31
Distance/Time
To Go:
Arrived

Flight Plot

Page will automatically refresh every two minutes.

Flight plan parsing failed; only flown route is shown


Map Options




Map Legend


Flown Route
Filed Route
Departure Airport
Arrival Airport
Navaid (VOR, NDB)
Fix

Horizontal Profiles

Position Reports

Time Latitude Longitude Heading Altitude Ground
Speed
12-Feb-21 01:23 33.871011 -117.979288 76 91ft 0kts
12-Feb-21 01:24 33.871011 -117.979288 76 91ft 0kts
12-Feb-21 01:25 33.871011 -117.979288 76 91ft 0kts
12-Feb-21 01:26 33.871011 -117.979288 76 91ft 0kts
12-Feb-21 01:27 33.871011 -117.979288 76 91ft 0kts
12-Feb-21 01:28 33.871011 -117.979288 76 91ft 0kts
12-Feb-21 01:29 33.871011 -117.979288 76 91ft 0kts
12-Feb-21 01:30 33.871011 -117.979288 76 91ft 0kts
12-Feb-21 01:31 33.871011 -117.979288 76 91ft 0kts
12-Feb-21 01:32 33.871011 -117.979288 76 91ft 0kts
12-Feb-21 01:33 33.871011 -117.979288 76 91ft 0kts
12-Feb-21 01:34 33.871011 -117.979288 76 91ft 0kts
12-Feb-21 01:35 33.871011 -117.979288 76 91ft 0kts
12-Feb-21 01:36 33.871011 -117.979288 76 91ft 0kts
12-Feb-21 01:37 33.871011 -117.979288 76 91ft 0kts
12-Feb-21 01:38 33.871011 -117.979288 76 91ft 0kts
12-Feb-21 01:39 33.871011 -117.979288 76 91ft 0kts
12-Feb-21 01:39 33.871011 -117.979288 76 91ft 0kts
12-Feb-21 01:41 33.871011 -117.979288 76 91ft 0kts
12-Feb-21 01:41 33.871011 -117.979288 76 91ft 0kts
12-Feb-21 01:42 33.871011 -117.979288 76 91ft 0kts
12-Feb-21 01:44 33.871188 -117.979198 340 90ft 6kts
12-Feb-21 01:44 33.871889 -117.977463 140 92ft 3kts
12-Feb-21 01:45 33.871908 -117.976773 340 94ft 0kts
12-Feb-21 01:46 33.872255 -117.976347 79 94ft 9kts
12-Feb-21 01:47 33.872718 -117.974824 359 94ft 6kts
12-Feb-21 01:48 33.869990 -117.991516 254 540ft 74kts
12-Feb-21 01:49 33.883623 -118.002636 8 1348ft 85kts
12-Feb-21 01:50 33.911064 -118.001696 347 1897ft 115kts
12-Feb-21 01:51 33.943374 -118.015765 329 2002ft 133kts
12-Feb-21 01:52 33.973967 -118.042583 323 2003ft 138kts
12-Feb-21 01:53 33.999222 -118.076843 303 2002ft 138kts
12-Feb-21 01:54 34.020450 -118.115734 303 2002ft 138kts
12-Feb-21 01:55 34.039202 -118.155817 274 2001ft 138kts
12-Feb-21 01:56 34.038247 -118.202160 266 2002ft 138kts
12-Feb-21 01:57 34.035821 -118.248670 266 2002ft 138kts
12-Feb-21 01:58 34.034869 -118.294975 295 1995ft 138kts
12-Feb-21 01:59 34.061934 -118.330819 316 2004ft 150kts
12-Feb-21 02:00 34.086080 -118.364460 285 2720ft 126kts
12-Feb-21 02:01 34.091890 -118.404552 278 3507ft 112kts
12-Feb-21 02:02 34.090344 -118.440567 265 4250ft 109kts
12-Feb-21 02:03 34.088665 -118.481173 268 4507ft 132kts
12-Feb-21 02:04 34.088332 -118.526165 285 4502ft 135kts
12-Feb-21 02:05 34.108726 -118.563285 313 4504ft 135kts
12-Feb-21 02:06 34.127388 -118.602113 287 4504ft 135kts
12-Feb-21 02:07 34.137048 -118.646239 284 4504ft 135kts
12-Feb-21 02:08 34.146234 -118.690547 283 4504ft 135kts
12-Feb-21 02:09 34.155362 -118.734728 283 4504ft 135kts
12-Feb-21 02:10 34.166319 -118.779079 287 4329ft 146kts
12-Feb-21 02:11 34.179159 -118.827376 287 3846ft 153kts
12-Feb-21 02:12 34.191246 -118.877068 284 3384ft 153kts
12-Feb-21 02:13 34.201632 -118.927069 282 2930ft 153kts
12-Feb-21 02:14 34.209936 -118.971339 282 2062ft 116kts
12-Feb-21 02:15 34.212924 -119.006006 269 1468ft 94kts
12-Feb-21 02:16 34.213189 -119.033707 270 1090ft 77kts
12-Feb-21 02:17 34.213441 -119.059295 271 524ft 75kts
12-Feb-21 02:18 34.213617 -119.084062 273 100ft 67kts
12-Feb-21 02:19 34.212345 -119.090879 144 67ft 10kts
12-Feb-21 02:20 34.210645 -119.090076 186 67ft 3kts
12-Feb-21 02:21 34.210419 -119.090018 88 68ft 0kts

Navigation Log

Ident Type
Flight plan parsing failed, navigation log unavailable